Terminal Aerodrome Forecast
Issued by NWS Hastings, NE

Home | Current Version | Previous Version | Text Only | Print | Product List | Glossary On
Versions: 1 2 3 4 5 6 7 8 9 10 11 12 13 14 15 16 17 18 19
000
FTUS45 KGID 311309 AAA
TAFEAR
TAF AMD
KEAR 311309Z 3113/0112 03009KT P6SM SCT019
      TEMPO 3113/3114 BKN019
     FM311500 04010KT P6SM SKC
     FM312200 13007KT P6SM SCT200
     FM010900 16011KT P6SM SCT200
      AMD LTD TO CLD VIS AND WIND=

USA.gov is the U.S. government's official web portal to all federal, state and local government web resources and services.